sensor_id;sensor_type;location;lat;lon;timestamp;temperature;humidity
70734;DHT22;58320;48.804;9.252;2023-09-08T00:00:57;16.20;83.70
70734;DHT22;58320;48.804;9.252;2023-09-08T00:03:23;16.20;83.80
70734;DHT22;58320;48.804;9.252;2023-09-08T00:05:49;16.20;83.90
70734;DHT22;58320;48.804;9.252;2023-09-08T00:08:15;16.10;84.10
70734;DHT22;58320;48.804;9.252;2023-09-08T00:10:41;16.10;84.20
70734;DHT22;58320;48.804;9.252;2023-09-08T00:13:07;16.10;84.20
70734;DHT22;58320;48.804;9.252;2023-09-08T00:15:36;16.10;85.00
70734;DHT22;58320;48.804;9.252;2023-09-08T00:18:03;16.10;84.40
70734;DHT22;58320;48.804;9.252;2023-09-08T00:20:28;16.10;84.50
70734;DHT22;58320;48.804;9.252;2023-09-08T00:22:54;16.00;84.80
70734;DHT22;58320;48.804;9.252;2023-09-08T00:25:20;16.00;85.30
70734;DHT22;58320;48.804;9.252;2023-09-08T00:27:46;16.00;85.40
70734;DHT22;58320;48.804;9.252;2023-09-08T00:30:12;16.00;85.30
70734;DHT22;58320;48.804;9.252;2023-09-08T00:32:38;16.00;85.40
70734;DHT22;58320;48.804;9.252;2023-09-08T00:35:06;16.00;85.30
70734;DHT22;58320;48.804;9.252;2023-09-08T00:37:33;16.00;85.00
70734;DHT22;58320;48.804;9.252;2023-09-08T00:39:59;15.90;84.90
70734;DHT22;58320;48.804;9.252;2023-09-08T00:42:24;15.90;84.90
70734;DHT22;58320;48.804;9.252;2023-09-08T00:44:50;15.80;85.00
70734;DHT22;58320;48.804;9.252;2023-09-08T00:47:16;15.80;85.20
70734;DHT22;58320;48.804;9.252;2023-09-08T00:49:42;15.70;85.30
70734;DHT22;58320;48.804;9.252;2023-09-08T00:52:08;15.70;85.40
70734;DHT22;58320;48.804;9.252;2023-09-08T00:54:34;15.60;85.70
70734;DHT22;58320;48.804;9.252;2023-09-08T00:57:01;15.60;85.90
70734;DHT22;58320;48.804;9.252;2023-09-08T00:59:32;15.60;85.90
70734;DHT22;58320;48.804;9.252;2023-09-08T01:01:59;15.50;86.10
70734;DHT22;58320;48.804;9.252;2023-09-08T01:04:24;15.40;86.20
70734;DHT22;58320;48.804;9.252;2023-09-08T01:06:50;15.40;86.70
70734;DHT22;58320;48.804;9.252;2023-09-08T01:09:17;15.40;86.60
70734;DHT22;58320;48.804;9.252;2023-09-08T01:11:44;15.40;86.60
70734;DHT22;58320;48.804;9.252;2023-09-08T01:14:12;15.40;86.70
70734;DHT22;58320;48.804;9.252;2023-09-08T01:16:39;15.40;86.60
70734;DHT22;58320;48.804;9.252;2023-09-08T01:19:07;15.40;86.60
70734;DHT22;58320;48.804;9.252;2023-09-08T01:25:04;15.40;86.70
70734;DHT22;58320;48.804;9.252;2023-09-08T01:27:35;15.40;86.80
70734;DHT22;58320;48.804;9.252;2023-09-08T01:30:05;15.40;86.90
70734;DHT22;58320;48.804;9.252;2023-09-08T01:32:32;15.30;87.20
70734;DHT22;58320;48.804;9.252;2023-09-08T01:34:59;15.30;87.10
70734;DHT22;58320;48.804;9.252;2023-09-08T01:37:26;15.20;87.50
70734;DHT22;58320;48.804;9.252;2023-09-08T01:39:54;15.20;87.80
70734;DHT22;58320;48.804;9.252;2023-09-08T01:42:20;15.20;87.80
70734;DHT22;58320;48.804;9.252;2023-09-08T01:44:46;15.20;87.90
70734;DHT22;58320;48.804;9.252;2023-09-08T01:47:12;15.10;88.00
70734;DHT22;58320;48.804;9.252;2023-09-08T01:49:37;15.10;88.20
70734;DHT22;58320;48.804;9.252;2023-09-08T01:52:04;15.10;88.10
70734;DHT22;58320;48.804;9.252;2023-09-08T01:54:30;15.00;88.20
70734;DHT22;58320;48.804;9.252;2023-09-08T01:56:56;15.00;88.40
70734;DHT22;58320;48.804;9.252;2023-09-08T01:59:21;15.00;88.50
70734;DHT22;58320;48.804;9.252;2023-09-08T02:01:47;15.00;89.10
70734;DHT22;58320;48.804;9.252;2023-09-08T02:04:13;15.00;88.90
70734;DHT22;58320;48.804;9.252;2023-09-08T02:06:38;15.00;89.00
70734;DHT22;58320;48.804;9.252;2023-09-08T02:09:04;15.00;88.90
70734;DHT22;58320;48.804;9.252;2023-09-08T02:11:30;14.90;88.80
70734;DHT22;58320;48.804;9.252;2023-09-08T02:13:55;14.90;88.90
70734;DHT22;58320;48.804;9.252;2023-09-08T02:16:21;14.80;89.60
70734;DHT22;58320;48.804;9.252;2023-09-08T02:18:47;14.80;89.90
70734;DHT22;58320;48.804;9.252;2023-09-08T02:21:13;14.80;90.00
70734;DHT22;58320;48.804;9.252;2023-09-08T02:23:38;14.70;90.10
70734;DHT22;58320;48.804;9.252;2023-09-08T02:26:04;14.70;90.10
70734;DHT22;58320;48.804;9.252;2023-09-08T02:28:30;14.70;90.20
70734;DHT22;58320;48.804;9.252;2023-09-08T02:30:56;14.60;90.30
70734;DHT22;58320;48.804;9.252;2023-09-08T02:33:21;14.60;90.40
70734;DHT22;58320;48.804;9.252;2023-09-08T02:35:47;14.60;90.60
70734;DHT22;58320;48.804;9.252;2023-09-08T02:38:13;14.60;90.60
70734;DHT22;58320;48.804;9.252;2023-09-08T02:40:38;14.70;90.60
70734;DHT22;58320;48.804;9.252;2023-09-08T02:43:04;14.70;90.20
70734;DHT22;58320;48.804;9.252;2023-09-08T02:45:30;14.80;90.20
70734;DHT22;58320;48.804;9.252;2023-09-08T02:47:56;14.90;89.80
70734;DHT22;58320;48.804;9.252;2023-09-08T02:50:22;14.90;89.50
70734;DHT22;58320;48.804;9.252;2023-09-08T02:52:49;14.90;89.10
70734;DHT22;58320;48.804;9.252;2023-09-08T02:55:15;14.90;89.00
70734;DHT22;58320;48.804;9.252;2023-09-08T02:57:40;14.90;88.80
70734;DHT22;58320;48.804;9.252;2023-09-08T03:00:07;14.90;88.90
70734;DHT22;58320;48.804;9.252;2023-09-08T03:02:33;14.90;89.10
70734;DHT22;58320;48.804;9.252;2023-09-08T03:04:59;14.80;89.30
70734;DHT22;58320;48.804;9.252;2023-09-08T03:07:28;14.80;89.30
70734;DHT22;58320;48.804;9.252;2023-09-08T03:09:55;14.80;89.30
70734;DHT22;58320;48.804;9.252;2023-09-08T03:12:20;14.80;89.40
70734;DHT22;58320;48.804;9.252;2023-09-08T03:14:46;14.80;89.30
70734;DHT22;58320;48.804;9.252;2023-09-08T03:17:12;14.80;89.40
70734;DHT22;58320;48.804;9.252;2023-09-08T03:19:38;14.80;89.30
70734;DHT22;58320;48.804;9.252;2023-09-08T03:22:04;14.80;89.60
70734;DHT22;58320;48.804;9.252;2023-09-08T03:24:30;14.80;89.10
70734;DHT22;58320;48.804;9.252;2023-09-08T03:26:55;14.70;89.10
70734;DHT22;58320;48.804;9.252;2023-09-08T03:29:23;14.70;89.10
70734;DHT22;58320;48.804;9.252;2023-09-08T03:31:48;14.70;89.20
70734;DHT22;58320;48.804;9.252;2023-09-08T03:34:14;14.60;89.20
70734;DHT22;58320;48.804;9.252;2023-09-08T03:36:40;14.70;89.60
70734;DHT22;58320;48.804;9.252;2023-09-08T03:39:06;14.60;89.60
70734;DHT22;58320;48.804;9.252;2023-09-08T03:41:32;14.60;89.80
70734;DHT22;58320;48.804;9.252;2023-09-08T03:43:57;14.50;90.10
70734;DHT22;58320;48.804;9.252;2023-09-08T03:46:23;14.50;90.40
70734;DHT22;58320;48.804;9.252;2023-09-08T03:48:50;14.50;90.20
70734;DHT22;58320;48.804;9.252;2023-09-08T03:51:16;14.40;90.40
70734;DHT22;58320;48.804;9.252;2023-09-08T03:53:42;14.40;90.70
70734;DHT22;58320;48.804;9.252;2023-09-08T03:56:07;14.40;91.00
70734;DHT22;58320;48.804;9.252;2023-09-08T03:58:33;14.30;91.20
70734;DHT22;58320;48.804;9.252;2023-09-08T04:00:59;14.30;91.60
70734;DHT22;58320;48.804;9.252;2023-09-08T04:03:25;14.30;91.40
70734;DHT22;58320;48.804;9.252;2023-09-08T04:05:50;14.20;91.50
70734;DHT22;58320;48.804;9.252;2023-09-08T04:08:16;14.20;91.60
70734;DHT22;58320;48.804;9.252;2023-09-08T04:10:42;14.20;91.50
70734;DHT22;58320;48.804;9.252;2023-09-08T04:13:08;14.20;91.80
70734;DHT22;58320;48.804;9.252;2023-09-08T04:15:33;14.20;91.80
70734;DHT22;58320;48.804;9.252;2023-09-08T04:17:59;14.20;91.90
70734;DHT22;58320;48.804;9.252;2023-09-08T04:20:25;14.20;92.00
70734;DHT22;58320;48.804;9.252;2023-09-08T04:22:51;14.20;91.90
70734;DHT22;58320;48.804;9.252;2023-09-08T04:25:16;14.10;92.10
70734;DHT22;58320;48.804;9.252;2023-09-08T04:27:42;14.10;92.30
70734;DHT22;58320;48.804;9.252;2023-09-08T04:30:10;14.00;92.60
70734;DHT22;58320;48.804;9.252;2023-09-08T04:32:36;14.00;92.70
70734;DHT22;58320;48.804;9.252;2023-09-08T04:35:03;13.90;93.00
70734;DHT22;58320;48.804;9.252;2023-09-08T04:37:29;13.90;93.30
70734;DHT22;58320;48.804;9.252;2023-09-08T04:39:56;13.90;93.30
70734;DHT22;58320;48.804;9.252;2023-09-08T04:42:22;14.00;93.30
70734;DHT22;58320;48.804;9.252;2023-09-08T04:44:48;13.90;93.30
70734;DHT22;58320;48.804;9.252;2023-09-08T04:47:14;13.90;93.20
70734;DHT22;58320;48.804;9.252;2023-09-08T04:49:40;13.90;93.30
70734;DHT22;58320;48.804;9.252;2023-09-08T04:52:06;13.90;93.30
70734;DHT22;58320;48.804;9.252;2023-09-08T04:54:31;13.90;93.60
70734;DHT22;58320;48.804;9.252;2023-09-08T04:56:58;13.80;93.60
70734;DHT22;58320;48.804;9.252;2023-09-08T04:59:24;13.80;93.70
70734;DHT22;58320;48.804;9.252;2023-09-08T05:01:50;13.80;93.90
70734;DHT22;58320;48.804;9.252;2023-09-08T05:04:17;13.90;93.90
70734;DHT22;58320;48.804;9.252;2023-09-08T05:06:43;13.90;93.70
70734;DHT22;58320;48.804;9.252;2023-09-08T05:09:09;14.00;93.60
70734;DHT22;58320;48.804;9.252;2023-09-08T05:11:35;14.00;93.40
70734;DHT22;58320;48.804;9.252;2023-09-08T05:14:01;14.00;93.00
70734;DHT22;58320;48.804;9.252;2023-09-08T05:16:27;14.10;92.80
70734;DHT22;58320;48.804;9.252;2023-09-08T05:19:06;14.10;92.70
70734;DHT22;58320;48.804;9.252;2023-09-08T05:21:33;14.10;92.40
70734;DHT22;58320;48.804;9.252;2023-09-08T05:23:59;14.10;92.20
70734;DHT22;58320;48.804;9.252;2023-09-08T05:26:25;14.10;92.10
70734;DHT22;58320;48.804;9.252;2023-09-08T05:28:51;14.20;91.90
70734;DHT22;58320;48.804;9.252;2023-09-08T05:31:16;14.20;92.10
70734;DHT22;58320;48.804;9.252;2023-09-08T05:33:42;14.30;92.00
70734;DHT22;58320;48.804;9.252;2023-09-08T05:36:08;14.30;91.60
70734;DHT22;58320;48.804;9.252;2023-09-08T05:38:33;14.40;90.90
70734;DHT22;58320;48.804;9.252;2023-09-08T05:40:59;14.50;90.60
70734;DHT22;58320;48.804;9.252;2023-09-08T05:43:25;14.60;90.10
70734;DHT22;58320;48.804;9.252;2023-09-08T05:45:51;14.60;89.80
70734;DHT22;58320;48.804;9.252;2023-09-08T05:48:17;14.70;89.40
70734;DHT22;58320;48.804;9.252;2023-09-08T05:50:42;14.70;89.00
70734;DHT22;58320;48.804;9.252;2023-09-08T05:53:08;14.80;88.70
70734;DHT22;58320;48.804;9.252;2023-09-08T05:55:34;14.90;88.40
70734;DHT22;58320;48.804;9.252;2023-09-08T05:58:00;15.00;88.00
70734;DHT22;58320;48.804;9.252;2023-09-08T06:00:25;15.10;87.60
70734;DHT22;58320;48.804;9.252;2023-09-08T06:02:51;15.20;87.40
70734;DHT22;58320;48.804;9.252;2023-09-08T06:05:17;15.30;87.20
70734;DHT22;58320;48.804;9.252;2023-09-08T06:07:43;15.40;87.00
70734;DHT22;58320;48.804;9.252;2023-09-08T06:10:09;15.60;87.10
70734;DHT22;58320;48.804;9.252;2023-09-08T06:12:35;15.70;86.70
70734;DHT22;58320;48.804;9.252;2023-09-08T06:15:02;15.80;86.60
70734;DHT22;58320;48.804;9.252;2023-09-08T06:17:28;15.90;86.10
70734;DHT22;58320;48.804;9.252;2023-09-08T06:19:54;16.00;85.70
70734;DHT22;58320;48.804;9.252;2023-09-08T06:22:20;16.20;85.00
70734;DHT22;58320;48.804;9.252;2023-09-08T06:24:45;16.20;84.30
70734;DHT22;58320;48.804;9.252;2023-09-08T06:27:11;16.30;84.00
70734;DHT22;58320;48.804;9.252;2023-09-08T06:29:38;16.40;83.60
70734;DHT22;58320;48.804;9.252;2023-09-08T06:32:06;16.50;83.10
70734;DHT22;58320;48.804;9.252;2023-09-08T06:34:32;16.60;82.70
70734;DHT22;58320;48.804;9.252;2023-09-08T06:36:59;16.80;82.50
70734;DHT22;58320;48.804;9.252;2023-09-08T06:39:25;16.90;82.20
70734;DHT22;58320;48.804;9.252;2023-09-08T06:41:52;17.00;81.80
70734;DHT22;58320;48.804;9.252;2023-09-08T06:44:19;17.20;81.10
70734;DHT22;58320;48.804;9.252;2023-09-08T06:46:45;17.30;80.60
70734;DHT22;58320;48.804;9.252;2023-09-08T06:49:11;17.50;80.10
70734;DHT22;58320;48.804;9.252;2023-09-08T06:51:37;17.60;79.70
70734;DHT22;58320;48.804;9.252;2023-09-08T06:54:04;17.80;78.80
70734;DHT22;58320;48.804;9.252;2023-09-08T06:56:30;18.00;77.40
70734;DHT22;58320;48.804;9.252;2023-09-08T06:58:55;18.20;77.40
70734;DHT22;58320;48.804;9.252;2023-09-08T07:01:23;18.40;77.70
70734;DHT22;58320;48.804;9.252;2023-09-08T07:03:49;18.60;76.70
70734;DHT22;58320;48.804;9.252;2023-09-08T07:06:16;18.80;77.40
70734;DHT22;58320;48.804;9.252;2023-09-08T07:08:42;19.00;76.60
70734;DHT22;58320;48.804;9.252;2023-09-08T07:11:08;19.20;74.20
70734;DHT22;58320;48.804;9.252;2023-09-08T07:13:34;19.30;74.10
70734;DHT22;58320;48.804;9.252;2023-09-08T07:16:00;19.40;74.30
70734;DHT22;58320;48.804;9.252;2023-09-08T07:18:25;19.60;73.20
70734;DHT22;58320;48.804;9.252;2023-09-08T07:20:51;19.70;72.70
70734;DHT22;58320;48.804;9.252;2023-09-08T07:23:17;19.90;72.30
70734;DHT22;58320;48.804;9.252;2023-09-08T07:25:49;20.10;73.80
70734;DHT22;58320;48.804;9.252;2023-09-08T07:28:15;20.30;70.90
70734;DHT22;58320;48.804;9.252;2023-09-08T07:30:42;20.40;70.70
70734;DHT22;58320;48.804;9.252;2023-09-08T07:33:08;20.60;69.70
70734;DHT22;58320;48.804;9.252;2023-09-08T07:35:38;20.80;69.40
70734;DHT22;58320;48.804;9.252;2023-09-08T07:38:04;20.90;68.40
70734;DHT22;58320;48.804;9.252;2023-09-08T07:40:35;21.00;68.30
70734;DHT22;58320;48.804;9.252;2023-09-08T07:43:00;21.00;67.60
70734;DHT22;58320;48.804;9.252;2023-09-08T07:45:26;21.10;67.50
70734;DHT22;58320;48.804;9.252;2023-09-08T07:47:52;21.20;67.60
70734;DHT22;58320;48.804;9.252;2023-09-08T07:52:50;21.40;69.10
70734;DHT22;58320;48.804;9.252;2023-09-08T07:55:17;21.50;68.00
70734;DHT22;58320;48.804;9.252;2023-09-08T07:57:44;21.70;67.30
70734;DHT22;58320;48.804;9.252;2023-09-08T08:00:14;21.80;66.50
70734;DHT22;58320;48.804;9.252;2023-09-08T08:02:42;22.10;66.40
70734;DHT22;58320;48.804;9.252;2023-09-08T08:05:10;22.00;64.40
70734;DHT22;58320;48.804;9.252;2023-09-08T08:07:37;22.00;66.00
70734;DHT22;58320;48.804;9.252;2023-09-08T08:10:04;22.20;65.60
70734;DHT22;58320;48.804;9.252;2023-09-08T08:12:31;22.40;66.00
70734;DHT22;58320;48.804;9.252;2023-09-08T08:14:56;22.70;66.40
70734;DHT22;58320;48.804;9.252;2023-09-08T08:17:24;22.80;64.00
70734;DHT22;58320;48.804;9.252;2023-09-08T08:19:51;22.90;63.80
70734;DHT22;58320;48.804;9.252;2023-09-08T08:22:16;23.00;63.30
70734;DHT22;58320;48.804;9.252;2023-09-08T08:24:42;23.00;62.70
70734;DHT22;58320;48.804;9.252;2023-09-08T08:27:08;23.10;62.00
70734;DHT22;58320;48.804;9.252;2023-09-08T08:29:33;23.30;61.60
70734;DHT22;58320;48.804;9.252;2023-09-08T08:31:59;23.50;60.80
70734;DHT22;58320;48.804;9.252;2023-09-08T08:34:25;23.50;59.80
70734;DHT22;58320;48.804;9.252;2023-09-08T08:36:51;23.30;59.90
70734;DHT22;58320;48.804;9.252;2023-09-08T08:39:16;23.30;60.70
70734;DHT22;58320;48.804;9.252;2023-09-08T08:41:42;23.30;60.50
70734;DHT22;58320;48.804;9.252;2023-09-08T08:44:08;23.50;60.30
70734;DHT22;58320;48.804;9.252;2023-09-08T08:46:36;23.60;60.30
70734;DHT22;58320;48.804;9.252;2023-09-08T08:49:06;23.60;60.90
70734;DHT22;58320;48.804;9.252;2023-09-08T08:51:32;23.80;60.10
70734;DHT22;58320;48.804;9.252;2023-09-08T08:53:58;23.90;60.30
70734;DHT22;58320;48.804;9.252;2023-09-08T08:56:30;24.20;60.10
70734;DHT22;58320;48.804;9.252;2023-09-08T08:58:58;24.30;58.90
70734;DHT22;58320;48.804;9.252;2023-09-08T09:01:24;24.40;58.80
70734;DHT22;58320;48.804;9.252;2023-09-08T09:03:51;24.40;58.20
70734;DHT22;58320;48.804;9.252;2023-09-08T09:06:18;24.50;59.50
70734;DHT22;58320;48.804;9.252;2023-09-08T09:08:44;24.70;58.90
70734;DHT22;58320;48.804;9.252;2023-09-08T09:11:11;24.70;57.40
70734;DHT22;58320;48.804;9.252;2023-09-08T09:13:37;24.90;57.80
70734;DHT22;58320;48.804;9.252;2023-09-08T09:16:03;24.90;57.40
70734;DHT22;58320;48.804;9.252;2023-09-08T09:18:30;25.10;57.40
70734;DHT22;58320;48.804;9.252;2023-09-08T09:21:01;25.20;57.50
70734;DHT22;58320;48.804;9.252;2023-09-08T09:23:28;25.30;55.90
70734;DHT22;58320;48.804;9.252;2023-09-08T09:25:55;25.50;54.80
70734;DHT22;58320;48.804;9.252;2023-09-08T09:28:21;25.50;54.30
70734;DHT22;58320;48.804;9.252;2023-09-08T09:30:51;25.60;55.60
70734;DHT22;58320;48.804;9.252;2023-09-08T09:33:20;25.80;55.20
70734;DHT22;58320;48.804;9.252;2023-09-08T09:35:51;25.90;53.80
70734;DHT22;58320;48.804;9.252;2023-09-08T09:38:18;26.00;53.80
70734;DHT22;58320;48.804;9.252;2023-09-08T09:40:46;26.00;52.90
70734;DHT22;58320;48.804;9.252;2023-09-08T09:43:13;26.10;53.30
70734;DHT22;58320;48.804;9.252;2023-09-08T09:45:42;26.10;53.00
70734;DHT22;58320;48.804;9.252;2023-09-08T09:48:11;26.00;52.90
70734;DHT22;58320;48.804;9.252;2023-09-08T09:50:41;26.00;53.50
70734;DHT22;58320;48.804;9.252;2023-09-08T09:53:16;26.00;54.40
70734;DHT22;58320;48.804;9.252;2023-09-08T09:55:45;26.10;55.60
70734;DHT22;58320;48.804;9.252;2023-09-08T09:58:12;26.20;55.80
70734;DHT22;58320;48.804;9.252;2023-09-08T10:00:39;26.40;56.80
70734;DHT22;58320;48.804;9.252;2023-09-08T10:03:13;26.60;56.80
70734;DHT22;58320;48.804;9.252;2023-09-08T10:05:39;26.80;54.80
70734;DHT22;58320;48.804;9.252;2023-09-08T10:08:05;26.80;53.50
70734;DHT22;58320;48.804;9.252;2023-09-08T10:10:32;26.70;53.20
70734;DHT22;58320;48.804;9.252;2023-09-08T10:13:03;26.40;54.30
70734;DHT22;58320;48.804;9.252;2023-09-08T10:15:31;26.40;55.30
70734;DHT22;58320;48.804;9.252;2023-09-08T10:17:57;26.70;56.10
70734;DHT22;58320;48.804;9.252;2023-09-08T10:20:28;26.80;54.30
70734;DHT22;58320;48.804;9.252;2023-09-08T10:26:06;27.10;53.40
70734;DHT22;58320;48.804;9.252;2023-09-08T10:28:36;27.10;53.70
70734;DHT22;58320;48.804;9.252;2023-09-08T10:31:02;27.20;53.50
70734;DHT22;58320;48.804;9.252;2023-09-08T10:33:30;27.30;51.80
70734;DHT22;58320;48.804;9.252;2023-09-08T10:35:57;27.40;52.10
70734;DHT22;58320;48.804;9.252;2023-09-08T10:38:27;27.50;51.60
70734;DHT22;58320;48.804;9.252;2023-09-08T10:43:46;27.70;50.60
70734;DHT22;58320;48.804;9.252;2023-09-08T10:46:26;27.60;50.60
70734;DHT22;58320;48.804;9.252;2023-09-08T10:48:54;27.50;51.90
70734;DHT22;58320;48.804;9.252;2023-09-08T10:51:21;27.60;52.00
70734;DHT22;58320;48.804;9.252;2023-09-08T10:53:48;27.70;51.20
70734;DHT22;58320;48.804;9.252;2023-09-08T10:56:17;27.60;51.20
70734;DHT22;58320;48.804;9.252;2023-09-08T10:58:49;27.50;50.10
70734;DHT22;58320;48.804;9.252;2023-09-08T11:01:17;27.40;50.90
70734;DHT22;58320;48.804;9.252;2023-09-08T11:03:46;27.50;51.80
70734;DHT22;58320;48.804;9.252;2023-09-08T11:06:18;27.70;51.20
70734;DHT22;58320;48.804;9.252;2023-09-08T11:08:47;27.90;50.60
70734;DHT22;58320;48.804;9.252;2023-09-08T11:11:15;28.20;51.90
70734;DHT22;58320;48.804;9.252;2023-09-08T11:13:41;28.50;50.20
70734;DHT22;58320;48.804;9.252;2023-09-08T11:16:11;29.00;49.20
70734;DHT22;58320;48.804;9.252;2023-09-08T11:18:37;29.30;47.60
70734;DHT22;58320;48.804;9.252;2023-09-08T11:21:06;29.80;47.50
70734;DHT22;58320;48.804;9.252;2023-09-08T11:23:34;30.60;46.30
70734;DHT22;58320;48.804;9.252;2023-09-08T11:26:00;31.60;44.40
70734;DHT22;58320;48.804;9.252;2023-09-08T11:28:27;32.60;42.40
70734;DHT22;58320;48.804;9.252;2023-09-08T11:30:54;33.40;41.30
70734;DHT22;58320;48.804;9.252;2023-09-08T11:33:22;34.20;40.30
70734;DHT22;58320;48.804;9.252;2023-09-08T11:35:50;35.00;38.90
70734;DHT22;58320;48.804;9.252;2023-09-08T11:38:18;35.60;37.90
70734;DHT22;58320;48.804;9.252;2023-09-08T11:40:49;35.90;36.10
70734;DHT22;58320;48.804;9.252;2023-09-08T11:43:15;36.00;37.10
70734;DHT22;58320;48.804;9.252;2023-09-08T11:45:43;36.40;36.00
70734;DHT22;58320;48.804;9.252;2023-09-08T11:48:09;36.90;36.50
70734;DHT22;58320;48.804;9.252;2023-09-08T11:50:35;37.60;35.40
70734;DHT22;58320;48.804;9.252;2023-09-08T11:53:00;38.10;34.40
70734;DHT22;58320;48.804;9.252;2023-09-08T11:55:28;38.40;33.30
70734;DHT22;58320;48.804;9.252;2023-09-08T11:57:55;38.50;32.50
70734;DHT22;58320;48.804;9.252;2023-09-08T12:00:26;38.40;33.10
70734;DHT22;58320;48.804;9.252;2023-09-08T12:02:52;38.30;33.00
70734;DHT22;58320;48.804;9.252;2023-09-08T12:05:26;38.30;32.70
70734;DHT22;58320;48.804;9.252;2023-09-08T12:07:54;38.30;32.60
70734;DHT22;58320;48.804;9.252;2023-09-08T12:10:22;37.90;32.80
70734;DHT22;58320;48.804;9.252;2023-09-08T12:12:51;37.60;33.50
70734;DHT22;58320;48.804;9.252;2023-09-08T12:15:40;37.60;33.40
70734;DHT22;58320;48.804;9.252;2023-09-08T12:18:10;37.80;32.70
70734;DHT22;58320;48.804;9.252;2023-09-08T12:20:38;38.20;33.30
70734;DHT22;58320;48.804;9.252;2023-09-08T12:23:07;38.70;32.30
70734;DHT22;58320;48.804;9.252;2023-09-08T12:25:45;38.60;31.70
70734;DHT22;58320;48.804;9.252;2023-09-08T12:28:12;38.40;32.80
70734;DHT22;58320;48.804;9.252;2023-09-08T12:30:38;38.50;32.60
70734;DHT22;58320;48.804;9.252;2023-09-08T12:33:04;38.50;32.50
70734;DHT22;58320;48.804;9.252;2023-09-08T12:35:30;38.60;32.80
70734;DHT22;58320;48.804;9.252;2023-09-08T12:38:01;39.10;31.70
70734;DHT22;58320;48.804;9.252;2023-09-08T12:40:30;39.60;31.10
70734;DHT22;58320;48.804;9.252;2023-09-08T12:42:58;39.40;31.20
70734;DHT22;58320;48.804;9.252;2023-09-08T12:45:26;39.20;31.40
70734;DHT22;58320;48.804;9.252;2023-09-08T12:47:52;39.10;31.60
70734;DHT22;58320;48.804;9.252;2023-09-08T12:50:20;39.00;31.70
70734;DHT22;58320;48.804;9.252;2023-09-08T12:52:46;39.00;31.20
70734;DHT22;58320;48.804;9.252;2023-09-08T12:55:12;39.10;31.30
70734;DHT22;58320;48.804;9.252;2023-09-08T12:57:38;39.00;31.40
70734;DHT22;58320;48.804;9.252;2023-09-08T13:00:04;39.00;31.30
70734;DHT22;58320;48.804;9.252;2023-09-08T13:02:31;39.00;31.30
70734;DHT22;58320;48.804;9.252;2023-09-08T13:04:57;38.80;31.30
70734;DHT22;58320;48.804;9.252;2023-09-08T13:07:24;38.60;31.90
70734;DHT22;58320;48.804;9.252;2023-09-08T13:09:49;38.40;31.60
70734;DHT22;58320;48.804;9.252;2023-09-08T13:12:18;38.10;31.50
70734;DHT22;58320;48.804;9.252;2023-09-08T13:14:44;37.60;32.30
70734;DHT22;58320;48.804;9.252;2023-09-08T13:17:11;37.60;33.30
70734;DHT22;58320;48.804;9.252;2023-09-08T13:19:37;37.70;33.20
70734;DHT22;58320;48.804;9.252;2023-09-08T13:22:05;38.10;31.90
70734;DHT22;58320;48.804;9.252;2023-09-08T13:24:31;38.30;31.60
70734;DHT22;58320;48.804;9.252;2023-09-08T13:26:59;38.20;31.20
70734;DHT22;58320;48.804;9.252;2023-09-08T13:29:26;37.70;32.10
70734;DHT22;58320;48.804;9.252;2023-09-08T13:31:55;37.80;31.80
70734;DHT22;58320;48.804;9.252;2023-09-08T13:34:21;38.30;31.70
70734;DHT22;58320;48.804;9.252;2023-09-08T13:36:48;38.70;31.60
70734;DHT22;58320;48.804;9.252;2023-09-08T13:39:13;39.00;30.90
70734;DHT22;58320;48.804;9.252;2023-09-08T13:41:50;39.00;31.10
70734;DHT22;58320;48.804;9.252;2023-09-08T13:44:23;39.20;31.20
70734;DHT22;58320;48.804;9.252;2023-09-08T13:46:53;39.10;31.40
70734;DHT22;58320;48.804;9.252;2023-09-08T13:49:20;39.20;31.10
70734;DHT22;58320;48.804;9.252;2023-09-08T13:51:46;39.10;31.50
70734;DHT22;58320;48.804;9.252;2023-09-08T13:54:12;39.00;31.20
70734;DHT22;58320;48.804;9.252;2023-09-08T13:56:39;39.30;31.50
70734;DHT22;58320;48.804;9.252;2023-09-08T13:59:07;39.40;31.00
70734;DHT22;58320;48.804;9.252;2023-09-08T14:01:37;39.40;31.10
70734;DHT22;58320;48.804;9.252;2023-09-08T14:04:03;39.40;31.00
70734;DHT22;58320;48.804;9.252;2023-09-08T14:06:31;39.10;31.40
70734;DHT22;58320;48.804;9.252;2023-09-08T14:08:57;39.00;31.80
70734;DHT22;58320;48.804;9.252;2023-09-08T14:11:23;39.70;31.20
70734;DHT22;58320;48.804;9.252;2023-09-08T14:13:49;40.30;30.10
70734;DHT22;58320;48.804;9.252;2023-09-08T14:16:17;40.00;29.30
70734;DHT22;58320;48.804;9.252;2023-09-08T14:18:43;39.50;29.50
70734;DHT22;58320;48.804;9.252;2023-09-08T14:21:09;39.50;29.70
70734;DHT22;58320;48.804;9.252;2023-09-08T14:23:35;39.30;30.20
70734;DHT22;58320;48.804;9.252;2023-09-08T14:26:02;39.50;29.80
70734;DHT22;58320;48.804;9.252;2023-09-08T14:28:28;39.90;29.80
70734;DHT22;58320;48.804;9.252;2023-09-08T14:30:57;39.90;29.10
70734;DHT22;58320;48.804;9.252;2023-09-08T14:33:23;39.20;29.80
70734;DHT22;58320;48.804;9.252;2023-09-08T14:35:49;39.80;29.60
70734;DHT22;58320;48.804;9.252;2023-09-08T14:38:17;40.30;28.90
70734;DHT22;58320;48.804;9.252;2023-09-08T14:40:43;40.80;28.90
70734;DHT22;58320;48.804;9.252;2023-09-08T14:43:10;41.20;28.60
70734;DHT22;58320;48.804;9.252;2023-09-08T14:45:36;41.10;27.80
70734;DHT22;58320;48.804;9.252;2023-09-08T14:48:01;40.90;28.80
70734;DHT22;58320;48.804;9.252;2023-09-08T14:50:27;41.20;28.60
70734;DHT22;58320;48.804;9.252;2023-09-08T14:52:53;41.10;28.60
70734;DHT22;58320;48.804;9.252;2023-09-08T14:55:18;41.00;28.60
70734;DHT22;58320;48.804;9.252;2023-09-08T14:57:44;41.00;29.50
70734;DHT22;58320;48.804;9.252;2023-09-08T15:00:11;41.00;28.80
70734;DHT22;58320;48.804;9.252;2023-09-08T15:02:37;41.00;28.70
70734;DHT22;58320;48.804;9.252;2023-09-08T15:05:03;40.40;28.70
70734;DHT22;58320;48.804;9.252;2023-09-08T15:07:29;39.40;28.80
70734;DHT22;58320;48.804;9.252;2023-09-08T15:09:54;38.80;30.40
70734;DHT22;58320;48.804;9.252;2023-09-08T15:12:20;38.90;30.80
70734;DHT22;58320;48.804;9.252;2023-09-08T15:14:46;39.40;29.90
70734;DHT22;58320;48.804;9.252;2023-09-08T15:17:12;39.20;29.80
70734;DHT22;58320;48.804;9.252;2023-09-08T15:19:38;39.00;29.50
70734;DHT22;58320;48.804;9.252;2023-09-08T15:22:04;38.90;30.20
70734;DHT22;58320;48.804;9.252;2023-09-08T15:24:30;38.80;29.80
70734;DHT22;58320;48.804;9.252;2023-09-08T15:26:56;38.40;30.00
70734;DHT22;58320;48.804;9.252;2023-09-08T15:29:22;38.30;30.10
70734;DHT22;58320;48.804;9.252;2023-09-08T15:31:48;38.20;30.30
70734;DHT22;58320;48.804;9.252;2023-09-08T15:34:14;38.20;30.60
70734;DHT22;58320;48.804;9.252;2023-09-08T15:36:40;38.40;30.20
70734;DHT22;58320;48.804;9.252;2023-09-08T15:39:06;38.30;31.00